Time;durP1;ratioP1;P1;durP2;ratioP2;P2;SDS_P1;SDS_P2;PMS_P1;PMS_P2;Temp;Humidity;BMP_temperature;BMP_pressure;BME280_temperature;BME280_humidity;BME280_pressure;Samples;Min_cycle;Max_cycle;Signal;HPM_P1;HPM_P2
2023/05/23 00:02:08;;;;;;;16.48;4.85;;;;;;;;;;5046905;28;20032;-65
2023/05/23 00:04:35;;;;;;;11.77;3.10;;;;;;;;;;5046670;28;20029;-65
2023/05/23 00:07:00;;;;;;;10.20;3.15;;;;;;;;;;5026301;28;20071;-61
2023/05/23 00:09:25;;;;;;;8.02;3.63;;;;;;;;;;5036419;28;20021;-63
2023/05/23 00:11:51;;;;;;;6.57;3.15;;;;;;;;;;5044158;28;20475;-65
2023/05/23 00:14:16;;;;;;;9.05;3.53;;;;;;;;;;5045065;28;20059;-65
2023/05/23 00:16:43;;;;;;;10.85;3.65;;;;;;;;;;5043617;28;20637;-61
2023/05/23 00:19:09;;;;;;;7.95;4.03;;;;;;;;;;5037997;28;20049;-66
2023/05/23 00:21:34;;;;;;;9.48;3.50;;;;;;;;;;5036215;28;20051;-65
2023/05/23 00:24:01;;;;;;;16.08;3.80;;;;;;;;;;5035107;28;20072;-61
2023/05/23 00:26:28;;;;;;;5.68;3.22;;;;;;;;;;5041977;28;20021;-65
2023/05/23 00:28:55;;;;;;;17.20;4.53;;;;;;;;;;5035872;28;20029;-64
2023/05/23 00:31:20;;;;;;;6.78;3.90;;;;;;;;;;5038172;28;20071;-61
2023/05/23 00:33:45;;;;;;;6.20;3.28;;;;;;;;;;5045283;28;20537;-65
2023/05/23 00:36:12;;;;;;;11.93;3.83;;;;;;;;;;5032167;28;20026;-65
2023/05/23 00:38:38;;;;;;;14.93;4.10;;;;;;;;;;5038416;28;20035;-66
2023/05/23 00:41:03;;;;;;;7.97;3.70;;;;;;;;;;5032137;28;20021;-65
2023/05/23 00:43:28;;;;;;;8.65;4.07;;;;;;;;;;5031194;28;20020;-65
2023/05/23 00:45:54;;;;;;;7.35;3.90;;;;;;;;;;5030256;28;20100;-67
2023/05/23 00:48:19;;;;;;;10.45;4.05;;;;;;;;;;5032626;28;20383;-63
2023/05/23 00:50:44;;;;;;;9.98;4.03;;;;;;;;;;5031947;28;20029;-65
2023/05/23 00:53:10;;;;;;;10.05;4.15;;;;;;;;;;5012067;28;20101;-64
2023/05/23 00:55:35;;;;;;;8.00;3.75;;;;;;;;;;5032553;28;20025;-67
2023/05/23 00:58:01;;;;;;;9.80;3.58;;;;;;;;;;5047540;28;20017;-61
2023/05/23 01:00:26;;;;;;;7.22;3.95;;;;;;;;;;5032100;28;20088;-67
2023/05/23 01:02:52;;;;;;;6.78;3.60;;;;;;;;;;5046351;28;20025;-66
2023/05/23 01:05:17;;;;;;;11.52;4.25;;;;;;;;;;5036753;28;20009;-66
2023/05/23 01:07:43;;;;;;;8.95;4.50;;;;;;;;;;5042750;28;20048;-67
2023/05/23 01:10:10;;;;;;;13.48;4.20;;;;;;;;;;5031803;28;20071;-63
2023/05/23 01:12:37;;;;;;;10.02;4.13;;;;;;;;;;5051217;28;20020;-66
2023/05/23 01:15:08;;;;;;;10.75;4.47;;;;;;;;;;5080953;22;20044;-89
2023/05/23 01:17:44;;;;;;;10.30;5.40;;;;;;;;;;5073973;28;20024;-90
2023/05/23 01:20:20;;;;;;;8.15;4.47;;;;;;;;;;5073418;28;20113;-90
2023/05/23 01:22:49;;;;;;;10.40;5.22;;;;;;;;;;5064153;28;20028;-89
2023/05/23 01:25:20;;;;;;;8.75;4.70;;;;;;;;;;5071921;28;20013;-90
2023/05/23 01:27:54;;;;;;;10.18;4.65;;;;;;;;;;5067171;28;20025;-90
2023/05/23 01:30:20;;;;;;;9.23;4.70;;;;;;;;;;5068866;28;20018;-89
2023/05/23 01:32:46;;;;;;;8.02;4.22;;;;;;;;;;5072425;28;20031;-89
2023/05/23 01:35:13;;;;;;;11.02;4.80;;;;;;;;;;5072337;28;20024;-89
2023/05/23 01:37:39;;;;;;;16.65;5.05;;;;;;;;;;5069543;28;20071;-89
2023/05/23 01:40:07;;;;;;;8.05;4.05;;;;;;;;;;5072681;28;20109;-88
2023/05/23 01:42:32;;;;;;;13.70;4.80;;;;;;;;;;5074443;28;20024;-90
2023/05/23 01:44:58;;;;;;;10.18;4.25;;;;;;;;;;5067875;28;20032;-89
2023/05/23 01:47:24;;;;;;;12.75;5.80;;;;;;;;;;5063161;28;20093;-89
2023/05/23 01:49:49;;;;;;;12.32;5.50;;;;;;;;;;5059330;28;20029;-89
2023/05/23 01:52:15;;;;;;;11.23;5.13;;;;;;;;;;5069347;28;20020;-89
2023/05/23 01:54:42;;;;;;;11.30;6.15;;;;;;;;;;5079312;28;20086;-87
2023/05/23 01:57:08;;;;;;;9.82;5.60;;;;;;;;;;5093298;28;20009;-88
2023/05/23 01:59:33;;;;;;;10.18;6.32;;;;;;;;;;5093338;28;20097;-88
2023/05/23 02:01:58;;;;;;;10.20;6.38;;;;;;;;;;5091950;28;20020;-89
2023/05/23 02:04:27;;;;;;;15.35;7.22;;;;;;;;;;5087370;28;20027;-88
2023/05/23 02:06:52;;;;;;;14.07;7.10;;;;;;;;;;5073554;28;20092;-89
2023/05/23 02:09:17;;;;;;;14.57;6.97;;;;;;;;;;5072686;28;20056;-90
2023/05/23 02:11:43;;;;;;;13.35;6.80;;;;;;;;;;5072703;28;20051;-90
2023/05/23 02:17:15;;;;;;;15.00;6.93;;;;;;;;;;5088359;28;20066;-90
2023/05/23 02:19:41;;;;;;;14.88;7.47;;;;;;;;;;5085754;28;20101;-87
2023/05/23 02:22:06;;;;;;;12.48;7.43;;;;;;;;;;5075690;28;20321;-89
2023/05/23 02:24:31;;;;;;;15.27;8.25;;;;;;;;;;5073779;28;20025;-89
2023/05/23 02:26:57;;;;;;;14.48;9.05;;;;;;;;;;5072688;28;20364;-88
2023/05/23 02:29:24;;;;;;;16.50;8.52;;;;;;;;;;5073049;28;20012;-88
2023/05/23 02:31:50;;;;;;;12.82;8.73;;;;;;;;;;5073312;28;20036;-89
2023/05/23 02:34:17;;;;;;;17.58;8.73;;;;;;;;;;5073475;28;20032;-90
2023/05/23 02:36:42;;;;;;;13.82;8.63;;;;;;;;;;5073935;28;20052;-89
2023/05/23 02:39:08;;;;;;;15.85;9.80;;;;;;;;;;5072805;28;20043;-89
2023/05/23 02:41:33;;;;;;;14.82;8.25;;;;;;;;;;5072477;28;20539;-89
2023/05/23 02:43:59;;;;;;;15.88;10.30;;;;;;;;;;5073321;28;20460;-88
2023/05/23 02:46:27;;;;;;;14.23;9.48;;;;;;;;;;5072138;28;20017;-89
2023/05/23 02:48:52;;;;;;;14.95;9.77;;;;;;;;;;5072377;28;20024;-89
2023/05/23 02:51:18;;;;;;;15.02;9.20;;;;;;;;;;5072771;28;20020;-87
2023/05/23 02:53:43;;;;;;;13.88;8.43;;;;;;;;;;5071428;28;20430;-89
2023/05/23 02:56:08;;;;;;;17.63;8.48;;;;;;;;;;5072711;28;20104;-88
2023/05/23 02:58:37;;;;;;;14.10;8.50;;;;;;;;;;5072028;28;20046;-88
2023/05/23 03:01:02;;;;;;;17.13;9.90;;;;;;;;;;5072565;28;20033;-90
2023/05/23 03:03:29;;;;;;;14.93;8.38;;;;;;;;;;5073071;28;20116;-89
2023/05/23 03:05:55;;;;;;;15.38;8.70;;;;;;;;;;5075576;28;20124;-90
2023/05/23 03:08:20;;;;;;;18.05;9.05;;;;;;;;;;5072955;28;20036;-91
2023/05/23 03:10:45;;;;;;;15.55;9.48;;;;;;;;;;5073428;28;20428;-88
2023/05/23 03:13:11;;;;;;;13.60;8.93;;;;;;;;;;5076509;28;20162;-90
2023/05/23 03:15:39;;;;;;;15.88;9.25;;;;;;;;;;5075040;28;20039;-89
2023/05/23 03:18:04;;;;;;;17.97;9.97;;;;;;;;;;5076833;28;20028;-90
2023/05/23 03:20:32;;;;;;;16.98;10.02;;;;;;;;;;5081260;28;20277;-89
2023/05/23 03:22:59;;;;;;;15.75;10.25;;;;;;;;;;5076924;28;20108;-89
2023/05/23 03:25:27;;;;;;;17.23;10.03;;;;;;;;;;5075741;28;20023;-87
2023/05/23 03:27:52;;;;;;;20.50;10.65;;;;;;;;;;5078834;28;20016;-90
2023/05/23 03:30:18;;;;;;;15.07;10.32;;;;;;;;;;5074198;28;20035;-87
2023/05/23 03:32:43;;;;;;;16.77;9.60;;;;;;;;;;5078658;28;20035;-88
2023/05/23 03:35:12;;;;;;;20.33;9.80;;;;;;;;;;5060663;28;20025;-88
2023/05/23 03:37:37;;;;;;;13.30;9.45;;;;;;;;;;5041602;28;20032;-89
2023/05/23 03:40:02;;;;;;;15.10;10.13;;;;;;;;;;5074555;28;20071;-89
2023/05/23 03:42:28;;;;;;;15.75;9.75;;;;;;;;;;5073706;28;20131;-88
2023/05/23 03:44:57;;;;;;;16.65;10.80;;;;;;;;;;5054885;28;20433;-89
2023/05/23 03:47:23;;;;;;;15.32;10.70;;;;;;;;;;5053958;28;20016;-89
2023/05/23 03:49:48;;;;;;;20.75;10.95;;;;;;;;;;5053877;28;20013;-89
2023/05/23 03:52:21;;;;;;;18.10;9.88;;;;;;;;;;5073302;28;20031;-88
2023/05/23 03:54:47;;;;;;;21.23;10.52;;;;;;;;;;5057240;28;20463;-89
2023/05/23 03:57:17;;;;;;;12.65;8.95;;;;;;;;;;5058172;28;20025;-90
2023/05/23 03:59:43;;;;;;;17.10;9.85;;;;;;;;;;5076414;28;20052;-90
2023/05/23 04:02:08;;;;;;;15.95;9.73;;;;;;;;;;5077768;28;20029;-90
2023/05/23 04:04:38;;;;;;;13.65;8.90;;;;;;;;;;5061677;28;20017;-91
2023/05/23 04:07:04;;;;;;;19.95;10.25;;;;;;;;;;5079892;28;20079;-88
2023/05/23 04:09:32;;;;;;;17.40;9.35;;;;;;;;;;5071703;28;20023;-89
2023/05/23 04:11:58;;;;;;;16.50;9.73;;;;;;;;;;5082560;28;20051;-87
2023/05/23 04:14:28;;;;;;;21.33;10.50;;;;;;;;;;5065109;28;20061;-91
2023/05/23 04:17:02;;;;;;;18.17;10.02;;;;;;;;;;5061911;28;20021;-90
2023/05/23 04:19:35;;;;;;;12.43;9.18;;;;;;;;;;5077949;28;20029;-91
2023/05/23 04:22:03;;;;;;;17.98;10.05;;;;;;;;;;5075826;28;20020;-89
2023/05/23 04:24:38;;;;;;;15.67;9.43;;;;;;;;;;5079707;28;20017;-90
2023/05/23 04:27:04;;;;;;;20.70;10.35;;;;;;;;;;5058588;28;20246;-91
2023/05/23 04:29:32;;;;;;;13.93;9.02;;;;;;;;;;5061923;28;20028;-89
2023/05/23 04:31:57;;;;;;;17.63;9.93;;;;;;;;;;5058390;28;20044;-90
2023/05/23 04:34:23;;;;;;;17.05;9.77;;;;;;;;;;5077321;28;20020;-90
2023/05/23 04:36:52;;;;;;;15.57;9.98;;;;;;;;;;5079566;28;20135;-91
2023/05/23 04:39:20;;;;;;;18.73;9.95;;;;;;;;;;5080119;28;20016;-90
2023/05/23 04:41:48;;;;;;;18.17;10.05;;;;;;;;;;5059516;28;20017;-90
2023/05/23 04:44:16;;;;;;;18.75;9.68;;;;;;;;;;5057432;28;20016;-88
2023/05/23 04:46:44;;;;;;;19.03;10.47;;;;;;;;;;5075609;28;20031;-90
2023/05/23 04:49:09;;;;;;;15.52;9.55;;;;;;;;;;5056391;28;20250;-89
2023/05/23 04:51:42;;;;;;;16.88;9.57;;;;;;;;;;5078133;28;20477;-89
2023/05/23 04:54:07;;;;;;;15.00;9.52;;;;;;;;;;5042368;28;20024;-91
2023/05/23 04:56:33;;;;;;;15.90;10.38;;;;;;;;;;5082558;28;20185;-91
2023/05/23 04:59:13;;;;;;;15.90;10.23;;;;;;;;;;5049351;28;20468;-87
2023/05/23 05:02:11;;;;;;;;;;;;;;;;;;;;;
2023/05/23 05:07:49;;;;;;;17.00;10.02;;;;;;;;;;5080586;28;20358;-90
2023/05/23 05:10:21;;;;;;;15.48;11.20;;;;;;;;;;5082859;28;20096;-90
2023/05/23 05:13:18;;;;;;;16.83;10.88;;;;;;;;;;5069079;28;20025;-90
2023/05/23 05:18:35;;;;;;;19.40;11.60;;;;;;;;;;5094754;28;20012;-90
2023/05/23 05:21:01;;;;;;;17.50;11.68;;;;;;;;;;5077626;28;20027;-89
2023/05/23 05:23:32;;;;;;;19.05;10.45;;;;;;;;;;5077233;28;20044;-90
2023/05/23 05:25:57;;;;;;;16.23;10.63;;;;;;;;;;5069700;22;20053;-67
2023/05/23 05:28:23;;;;;;;19.02;11.48;;;;;;;;;;5028799;28;20017;-68
2023/05/23 05:30:52;;;;;;;18.08;11.00;;;;;;;;;;5035023;28;20039;-64
2023/05/23 05:33:19;;;;;;;16.90;10.15;;;;;;;;;;5032505;28;20517;-66
2023/05/23 05:35:44;;;;;;;17.33;11.02;;;;;;;;;;5037084;28;20029;-69
2023/05/23 05:38:09;;;;;;;16.10;10.73;;;;;;;;;;5040304;22;20053;-68
2023/05/23 05:40:35;;;;;;;18.95;11.13;;;;;;;;;;5012555;28;20018;-68
2023/05/23 05:43:00;;;;;;;16.48;11.27;;;;;;;;;;5028055;28;20017;-69
2023/05/23 05:45:25;;;;;;;18.88;10.32;;;;;;;;;;5032114;28;20053;-68
2023/05/23 05:47:50;;;;;;;18.98;11.57;;;;;;;;;;5011583;28;20465;-69
2023/05/23 05:50:16;;;;;;;19.50;11.93;;;;;;;;;;4999920;28;20045;-69
2023/05/23 05:52:41;;;;;;;22.38;12.40;;;;;;;;;;4995851;28;20018;-65
2023/05/23 05:55:12;;;;;;;23.70;12.63;;;;;;;;;;4991706;28;20018;-69
2023/05/23 05:57:40;;;;;;;21.95;13.35;;;;;;;;;;4989442;28;20475;-68
2023/05/23 06:00:14;;;;;;;20.10;12.90;;;;;;;;;;4994072;28;20061;-68
2023/05/23 06:02:40;;;;;;;21.63;13.18;;;;;;;;;;4994538;28;20124;-68
2023/05/23 06:05:06;;;;;;;21.67;13.02;;;;;;;;;;4986000;28;20023;-69
2023/05/23 06:07:32;;;;;;;23.27;13.02;;;;;;;;;;5002586;28;20026;-68
2023/05/23 06:09:58;;;;;;;20.83;13.38;;;;;;;;;;5000803;28;20081;-67
2023/05/23 06:12:23;;;;;;;22.63;12.65;;;;;;;;;;4996278;28;20021;-67
2023/05/23 06:14:48;;;;;;;23.15;12.48;;;;;;;;;;4988322;28;20765;-69
2023/05/23 06:17:13;;;;;;;27.45;13.98;;;;;;;;;;4998069;28;20030;-66
2023/05/23 06:19:39;;;;;;;20.38;13.45;;;;;;;;;;5014289;28;20490;-66
2023/05/23 06:22:04;;;;;;;25.50;13.43;;;;;;;;;;4996442;28;20022;-69
2023/05/23 06:24:30;;;;;;;25.63;14.30;;;;;;;;;;4997840;28;20030;-65
2023/05/23 06:26:55;;;;;;;21.52;13.93;;;;;;;;;;4997491;28;20470;-69
2023/05/23 06:29:20;;;;;;;25.83;13.60;;;;;;;;;;5000408;28;20022;-69
2023/05/23 06:31:45;;;;;;;24.95;14.55;;;;;;;;;;5001433;28;20053;-70
2023/05/23 06:34:10;;;;;;;33.05;15.73;;;;;;;;;;4999336;28;20515;-66
2023/05/23 06:36:36;;;;;;;26.75;15.15;;;;;;;;;;5002964;28;20056;-68
2023/05/23 06:39:01;;;;;;;33.10;17.35;;;;;;;;;;4998863;28;20156;-65
2023/05/23 06:41:26;;;;;;;28.27;16.65;;;;;;;;;;5000288;28;20495;-69
2023/05/23 06:43:52;;;;;;;37.25;18.08;;;;;;;;;;4999036;28;20052;-68
2023/05/23 06:46:17;;;;;;;35.53;18.98;;;;;;;;;;5001677;28;20025;-68
2023/05/23 06:48:42;;;;;;;34.47;16.98;;;;;;;;;;4999360;28;20022;-70
2023/05/23 06:51:07;;;;;;;25.90;16.63;;;;;;;;;;5002977;28;20050;-67
2023/05/23 06:53:33;;;;;;;30.63;17.80;;;;;;;;;;4998196;28;20054;-68
2023/05/23 06:55:58;;;;;;;31.70;17.17;;;;;;;;;;5000823;28;20022;-64
2023/05/23 06:58:24;;;;;;;30.52;17.40;;;;;;;;;;4998257;28;20037;-68
2023/05/23 07:00:49;;;;;;;29.33;16.33;;;;;;;;;;4997130;28;20037;-68
2023/05/23 07:03:15;;;;;;;28.83;15.45;;;;;;;;;;4999796;28;20018;-69
2023/05/23 07:05:40;;;;;;;25.27;14.27;;;;;;;;;;5000463;28;20116;-69
2023/05/23 07:08:06;;;;;;;27.80;13.32;;;;;;;;;;4997871;28;20105;-69
2023/05/23 07:10:33;;;;;;;31.33;11.88;;;;;;;;;;4999566;28;20037;-70
2023/05/23 07:12:58;;;;;;;21.27;10.38;;;;;;;;;;4999465;28;20030;-68
2023/05/23 07:15:23;;;;;;;19.52;9.73;;;;;;;;;;4999933;28;20084;-68
2023/05/23 07:17:49;;;;;;;18.48;9.40;;;;;;;;;;4999850;28;20677;-69
2023/05/23 07:20:14;;;;;;;16.55;9.68;;;;;;;;;;4999447;28;20487;-70
2023/05/23 07:22:39;;;;;;;16.52;8.88;;;;;;;;;;5001448;28;20054;-67
2023/05/23 07:25:05;;;;;;;14.05;7.53;;;;;;;;;;4998273;28;20112;-69
2023/05/23 07:27:30;;;;;;;14.73;7.55;;;;;;;;;;4997769;28;20060;-70
2023/05/23 07:29:56;;;;;;;14.55;8.27;;;;;;;;;;5002905;28;20141;-67
2023/05/23 07:32:21;;;;;;;17.05;7.57;;;;;;;;;;5002862;28;20100;-69
2023/05/23 07:34:47;;;;;;;15.63;8.48;;;;;;;;;;5003903;28;20050;-68
2023/05/23 07:37:12;;;;;;;12.98;7.47;;;;;;;;;;5002703;28;20152;-70
2023/05/23 07:39:37;;;;;;;15.15;7.85;;;;;;;;;;5003266;28;20105;-72
2023/05/23 07:42:02;;;;;;;13.98;7.60;;;;;;;;;;5005325;28;20042;-68
2023/05/23 07:44:28;;;;;;;11.65;7.10;;;;;;;;;;5003947;28;20018;-69
2023/05/23 07:46:53;;;;;;;18.65;8.45;;;;;;;;;;5002153;28;20472;-70
2023/05/23 07:49:18;;;;;;;12.38;7.22;;;;;;;;;;4993326;28;20057;-67
2023/05/23 07:51:43;;;;;;;13.98;7.78;;;;;;;;;;5000908;28;20037;-69
2023/05/23 07:54:08;;;;;;;20.55;8.57;;;;;;;;;;4998621;28;20070;-67
2023/05/23 07:56:34;;;;;;;20.30;8.02;;;;;;;;;;4997999;28;20132;-69
2023/05/23 07:58:59;;;;;;;15.30;7.00;;;;;;;;;;4999995;28;20160;-69
2023/05/23 08:01:24;;;;;;;13.80;7.57;;;;;;;;;;5002178;28;20618;-65
2023/05/23 08:03:50;;;;;;;23.50;7.70;;;;;;;;;;4993211;28;20022;-69
2023/05/23 08:06:15;;;;;;;17.45;7.60;;;;;;;;;;5001172;28;20113;-68
2023/05/23 08:08:42;;;;;;;13.73;7.20;;;;;;;;;;5000952;28;20036;-71
2023/05/23 08:11:07;;;;;;;15.82;7.78;;;;;;;;;;4998173;28;20029;-68
2023/05/23 08:13:32;;;;;;;20.80;8.18;;;;;;;;;;5000919;28;20416;-70
2023/05/23 08:15:58;;;;;;;14.25;7.68;;;;;;;;;;5001952;28;20220;-65
2023/05/23 08:18:23;;;;;;;16.05;8.45;;;;;;;;;;4999284;28;20065;-68
2023/05/23 08:20:48;;;;;;;15.20;7.97;;;;;;;;;;5001434;28;20034;-70
2023/05/23 08:23:13;;;;;;;12.95;7.80;;;;;;;;;;5001273;28;20381;-66
2023/05/23 08:25:39;;;;;;;13.93;8.23;;;;;;;;;;5001862;28;20044;-68
2023/05/23 08:28:04;;;;;;;14.80;9.15;;;;;;;;;;4997994;28;20224;-66
2023/05/23 08:30:31;;;;;;;18.23;9.23;;;;;;;;;;4995289;28;20381;-68
2023/05/23 08:32:56;;;;;;;15.73;8.88;;;;;;;;;;5002656;28;20030;-66
2023/05/23 08:35:22;;;;;;;14.85;8.55;;;;;;;;;;5001104;28;20018;-68
2023/05/23 08:37:47;;;;;;;18.30;8.77;;;;;;;;;;5000606;28;20030;-70
2023/05/23 08:40:20;;;;;;;14.88;7.93;;;;;;;;;;5002173;28;20029;-68
2023/05/23 08:42:46;;;;;;;14.18;8.05;;;;;;;;;;5001800;28;20079;-68
2023/05/23 08:45:11;;;;;;;15.18;8.63;;;;;;;;;;5000648;28;20423;-68
2023/05/23 08:47:37;;;;;;;14.52;8.93;;;;;;;;;;5000917;28;20026;-68
2023/05/23 08:50:07;;;;;;;15.18;8.88;;;;;;;;;;5001657;28;20030;-69
2023/05/23 08:52:32;;;;;;;16.63;8.52;;;;;;;;;;5002694;28;20037;-69
2023/05/23 08:54:58;;;;;;;16.98;8.90;;;;;;;;;;5002128;28;20034;-64
2023/05/23 08:57:24;;;;;;;16.33;8.30;;;;;;;;;;5001110;28;20041;-67
2023/05/23 08:59:50;;;;;;;18.83;9.45;;;;;;;;;;5004063;28;20102;-69
2023/05/23 09:02:17;;;;;;;17.63;8.90;;;;;;;;;;5006937;28;20037;-68
2023/05/23 09:04:42;;;;;;;15.68;8.68;;;;;;;;;;5003374;28;20033;-71
2023/05/23 09:07:08;;;;;;;15.30;8.88;;;;;;;;;;5015443;28;20033;-68
2023/05/23 09:09:34;;;;;;;28.77;8.88;;;;;;;;;;5017705;28;20022;-71
2023/05/23 09:11:59;;;;;;;16.25;9.57;;;;;;;;;;5011440;28;20036;-69
2023/05/23 09:14:25;;;;;;;18.55;9.05;;;;;;;;;;5002176;28;20017;-69
2023/05/23 09:16:50;;;;;;;18.00;9.55;;;;;;;;;;4998657;28;20054;-70
2023/05/23 09:19:17;;;;;;;14.43;9.13;;;;;;;;;;4999718;28;20150;-69
2023/05/23 09:21:45;;;;;;;15.38;9.07;;;;;;;;;;4993443;28;20037;-68
2023/05/23 09:24:11;;;;;;;15.43;9.68;;;;;;;;;;4999100;28;20366;-70
2023/05/23 09:26:36;;;;;;;17.38;9.13;;;;;;;;;;4994424;28;20033;-67
2023/05/23 09:29:04;;;;;;;13.32;8.55;;;;;;;;;;5000734;28;20026;-70
2023/05/23 09:31:30;;;;;;;15.52;9.48;;;;;;;;;;5002267;28;20022;-71
2023/05/23 09:33:56;;;;;;;20.00;9.10;;;;;;;;;;5002231;28;20018;-69
2023/05/23 09:36:22;;;;;;;21.20;9.85;;;;;;;;;;4979787;28;20410;-69
2023/05/23 09:38:47;;;;;;;16.58;8.52;;;;;;;;;;5002172;28;20078;-66
2023/05/23 09:41:13;;;;;;;14.80;8.70;;;;;;;;;;5001306;28;20488;-69
2023/05/23 09:43:39;;;;;;;20.65;9.32;;;;;;;;;;4999987;28;20022;-67
2023/05/23 09:46:10;;;;;;;13.18;8.25;;;;;;;;;;5000759;28;20013;-67
2023/05/23 09:48:36;;;;;;;17.48;8.80;;;;;;;;;;4988576;28;20108;-65
2023/05/23 09:51:05;;;;;;;14.93;8.18;;;;;;;;;;4999562;28;20176;-69
2023/05/23 09:53:31;;;;;;;15.95;7.70;;;;;;;;;;4999025;28;20049;-69
2023/05/23 09:55:57;;;;;;;15.02;8.77;;;;;;;;;;4999028;28;20061;-69
2023/05/23 09:58:24;;;;;;;21.33;8.18;;;;;;;;;;5001159;28;20792;-68
2023/05/23 10:00:51;;;;;;;13.52;8.02;;;;;;;;;;4999888;28;20103;-68
2023/05/23 10:03:16;;;;;;;17.17;8.60;;;;;;;;;;5001099;28;20026;-66
2023/05/23 10:05:41;;;;;;;13.85;7.88;;;;;;;;;;4999705;28;20416;-68
2023/05/23 10:08:09;;;;;;;14.93;7.20;;;;;;;;;;4999954;28;20751;-67
2023/05/23 10:10:44;;;;;;;17.20;8.05;;;;;;;;;;5001549;28;20264;-68
2023/05/23 10:13:09;;;;;;;15.65;7.10;;;;;;;;;;5000385;28;20141;-66
2023/05/23 10:15:38;;;;;;;10.20;5.82;;;;;;;;;;4997516;28;20053;-69
2023/05/23 10:18:23;;;;;;;11.73;5.47;;;;;;;;;;5000431;28;20399;-69
2023/05/23 10:20:51;;;;;;;8.32;5.00;;;;;;;;;;4999486;28;20080;-69
2023/05/23 10:23:17;;;;;;;9.52;4.75;;;;;;;;;;5001393;28;20141;-69
2023/05/23 10:25:42;;;;;;;15.07;5.25;;;;;;;;;;5009197;28;20033;-65
2023/05/23 10:28:08;;;;;;;10.63;4.82;;;;;;;;;;5002133;28;20590;-69
2023/05/23 10:30:34;;;;;;;10.68;4.68;;;;;;;;;;4997449;28;20033;-69
2023/05/23 10:32:59;;;;;;;7.90;4.55;;;;;;;;;;5001714;28;20597;-66
2023/05/23 10:35:31;;;;;;;8.35;4.78;;;;;;;;;;4998601;28;20558;-71
2023/05/23 10:38:14;;;;;;;10.85;4.90;;;;;;;;;;4999589;28;20105;-70
2023/05/23 10:40:53;;;;;;;11.40;4.55;;;;;;;;;;4999746;28;20116;-68
2023/05/23 10:43:25;;;;;;;10.95;4.90;;;;;;;;;;4999165;28;20034;-70
2023/05/23 10:45:51;;;;;;;10.77;5.72;;;;;;;;;;4995630;28;20029;-68
2023/05/23 10:48:40;;;;;;;17.33;4.93;;;;;;;;;;5000609;28;20044;-67
2023/05/23 10:51:05;;;;;;;;;;;;;;;;;;5001735;28;20041;-71
2023/05/23 10:53:31;;;;;;;16.13;5.07;;;;;;;;;;4998078;28;20445;-66
2023/05/23 10:55:57;;;;;;;8.70;4.65;;;;;;;;;;5001302;28;20255;-69
2023/05/23 10:58:22;;;;;;;8.32;4.43;;;;;;;;;;5000785;28;20038;-70
2023/05/23 11:00:55;;;;;;;9.02;4.53;;;;;;;;;;5000428;28;20029;-65
2023/05/23 11:03:33;;;;;;;8.57;4.32;;;;;;;;;;5002977;28;20025;-71
2023/05/23 11:05:59;;;;;;;9.98;3.78;;;;;;;;;;5000812;28;20101;-67
2023/05/23 11:08:25;;;;;;;8.00;4.07;;;;;;;;;;4987117;28;20122;-66
2023/05/23 11:10:50;;;;;;;14.85;3.97;;;;;;;;;;5002571;28;20045;-68
2023/05/23 11:13:15;;;;;;;6.65;3.63;;;;;;;;;;5000421;28;20029;-69
2023/05/23 11:15:41;;;;;;;7.45;3.25;;;;;;;;;;4998090;28;20026;-66
2023/05/23 11:18:06;;;;;;;9.38;3.38;;;;;;;;;;5001103;28;20022;-70
2023/05/23 11:20:32;;;;;;;6.82;2.88;;;;;;;;;;5000690;28;20091;-69
2023/05/23 11:22:59;;;;;;;3.88;2.05;;;;;;;;;;4982693;28;20101;-69
2023/05/23 11:25:44;;;;;;;3.92;2.05;;;;;;;;;;4981323;28;20369;-69
2023/05/23 11:28:10;;;;;;;7.68;2.20;;;;;;;;;;4999171;28;20034;-70
2023/05/23 11:30:36;;;;;;;4.43;1.63;;;;;;;;;;5011482;28;20025;-69
2023/05/23 11:33:15;;;;;;;3.33;1.08;;;;;;;;;;5017276;28;20017;-67
2023/05/23 11:35:44;;;;;;;6.85;1.35;;;;;;;;;;4996725;28;20352;-69
2023/05/23 11:38:10;;;;;;;5.30;1.45;;;;;;;;;;5010028;22;20137;-68
2023/05/23 11:40:36;;;;;;;6.53;1.42;;;;;;;;;;4990096;28;20441;-67
2023/05/23 11:43:02;;;;;;;5.28;1.70;;;;;;;;;;4988616;28;20014;-71
2023/05/23 11:45:33;;;;;;;5.63;1.50;;;;;;;;;;4988425;28;20018;-69
2023/05/23 11:48:03;;;;;;;7.90;1.30;;;;;;;;;;4988933;28;20022;-68
2023/05/23 11:50:28;;;;;;;4.68;1.45;;;;;;;;;;4989634;28;20074;-70
2023/05/23 11:52:54;;;;;;;5.57;1.48;;;;;;;;;;4988827;28;20143;-68
2023/05/23 11:55:20;;;;;;;9.18;1.30;;;;;;;;;;4988088;28;20018;-66
2023/05/23 11:57:45;;;;;;;12.32;1.85;;;;;;;;;;4974023;28;20081;-67
2023/05/23 12:00:11;;;;;;;3.80;1.67;;;;;;;;;;4975437;28;20034;-68
2023/05/23 12:02:40;;;;;;;10.88;2.42;;;;;;;;;;4970223;28;20034;-71
2023/05/23 12:05:09;;;;;;;4.65;1.90;;;;;;;;;;4970945;28;20023;-68
2023/05/23 12:07:35;;;;;;;3.72;1.90;;;;;;;;;;4966085;28;20628;-69
2023/05/23 12:10:01;;;;;;;4.50;2.38;;;;;;;;;;4986695;28;20030;-69
2023/05/23 12:12:26;;;;;;;5.68;2.45;;;;;;;;;;4977965;28;20046;-70
2023/05/23 12:14:54;;;;;;;5.75;2.60;;;;;;;;;;4974715;28;20023;-69
2023/05/23 12:17:20;;;;;;;5.32;2.35;;;;;;;;;;4977326;28;20543;-70
2023/05/23 12:19:45;;;;;;;5.25;2.42;;;;;;;;;;4967808;28;20038;-68
2023/05/23 12:22:11;;;;;;;5.93;2.40;;;;;;;;;;4959337;28;20035;-66
2023/05/23 12:24:43;;;;;;;8.18;3.15;;;;;;;;;;4975645;28;20030;-67
2023/05/23 12:27:09;;;;;;;5.90;3.05;;;;;;;;;;4986487;28;20019;-68
2023/05/23 12:29:36;;;;;;;5.72;3.15;;;;;;;;;;4972806;28;20468;-67
2023/05/23 12:32:03;;;;;;;7.65;3.40;;;;;;;;;;4985525;28;20040;-68
2023/05/23 12:34:29;;;;;;;9.27;3.22;;;;;;;;;;4988822;28;20442;-67
2023/05/23 12:36:54;;;;;;;8.68;3.70;;;;;;;;;;4982594;28;20027;-68
2023/05/23 12:39:23;;;;;;;5.25;3.20;;;;;;;;;;4979288;28;20030;-64
2023/05/23 12:41:49;;;;;;;5.63;2.92;;;;;;;;;;4992023;28;20022;-66
2023/05/23 12:44:15;;;;;;;9.23;4.63;;;;;;;;;;4977771;28;20018;-68
2023/05/23 12:46:40;;;;;;;7.32;3.13;;;;;;;;;;4972749;28;20023;-69
2023/05/23 12:49:05;;;;;;;8.15;3.50;;;;;;;;;;4963747;28;20093;-67
2023/05/23 12:51:31;;;;;;;7.25;3.22;;;;;;;;;;4982614;28;20468;-65
2023/05/23 12:53:57;;;;;;;6.32;2.95;;;;;;;;;;4989559;28;20030;-68
2023/05/23 12:56:22;;;;;;;7.57;2.53;;;;;;;;;;4987930;28;20022;-66
2023/05/23 12:58:47;;;;;;;7.90;2.70;;;;;;;;;;4981663;28;20030;-67
2023/05/23 13:01:13;;;;;;;6.65;2.53;;;;;;;;;;4971857;28;20411;-67
2023/05/23 13:03:38;;;;;;;8.82;3.40;;;;;;;;;;4973242;28;20014;-68
2023/05/23 13:06:03;;;;;;;11.60;3.50;;;;;;;;;;4973749;28;20122;-66
2023/05/23 13:08:29;;;;;;;7.03;3.30;;;;;;;;;;4971477;28;20019;-67
2023/05/23 13:10:54;;;;;;;7.95;4.25;;;;;;;;;;4975479;28;20030;-67
2023/05/23 13:13:20;;;;;;;7.88;3.53;;;;;;;;;;4965115;28;20089;-67
2023/05/23 13:15:45;;;;;;;7.85;3.80;;;;;;;;;;4953527;28;20073;-67
2023/05/23 13:18:10;;;;;;;7.25;3.40;;;;;;;;;;4985369;28;20067;-68
2023/05/23 13:20:36;;;;;;;11.10;3.30;;;;;;;;;;4963583;28;20057;-66
2023/05/23 13:23:01;;;;;;;6.30;3.53;;;;;;;;;;4990440;28;20110;-68
2023/05/23 13:25:27;;;;;;;8.02;3.40;;;;;;;;;;4974678;28;20026;-66
2023/05/23 13:27:52;;;;;;;6.57;3.53;;;;;;;;;;4982025;28;20060;-71
2023/05/23 13:30:18;;;;;;;5.20;3.00;;;;;;;;;;4971671;28;20043;-70
2023/05/23 13:32:44;;;;;;;7.38;2.38;;;;;;;;;;4988486;28;20088;-68
2023/05/23 13:35:09;;;;;;;6.72;2.67;;;;;;;;;;4988884;28;20030;-67
2023/05/23 13:37:34;;;;;;;5.65;3.20;;;;;;;;;;4986114;28;20019;-68
2023/05/23 13:40:00;;;;;;;8.90;2.97;;;;;;;;;;4977313;28;20073;-70
2023/05/23 13:42:25;;;;;;;6.45;3.08;;;;;;;;;;4976905;28;20407;-68
2023/05/23 13:44:51;;;;;;;7.78;3.28;;;;;;;;;;4981148;28;20030;-71
2023/05/23 13:47:16;;;;;;;8.70;3.83;;;;;;;;;;4978082;28;20019;-68
2023/05/23 13:49:42;;;;;;;12.10;3.35;;;;;;;;;;4962617;28;20477;-67
2023/05/23 13:52:07;;;;;;;10.85;4.00;;;;;;;;;;4971860;28;20031;-68
2023/05/23 13:54:32;;;;;;;6.55;3.00;;;;;;;;;;4972166;28;20037;-69
2023/05/23 13:56:58;;;;;;;8.68;3.40;;;;;;;;;;4977493;28;20439;-69
2023/05/23 13:59:25;;;;;;;6.47;3.35;;;;;;;;;;4979794;28;20162;-67
2023/05/23 14:01:50;;;;;;;9.75;3.00;;;;;;;;;;4975780;28;20026;-69
2023/05/23 14:04:15;;;;;;;10.13;3.17;;;;;;;;;;4984876;28;20032;-69
2023/05/23 14:06:40;;;;;;;6.45;3.40;;;;;;;;;;4975394;28;20096;-70
2023/05/23 14:09:06;;;;;;;6.18;3.50;;;;;;;;;;4976064;28;20046;-68
2023/05/23 14:11:32;;;;;;;6.88;3.33;;;;;;;;;;4976079;28;20570;-70
2023/05/23 14:13:57;;;;;;;7.53;3.53;;;;;;;;;;4969233;28;20018;-70
2023/05/23 14:16:22;;;;;;;9.15;4.10;;;;;;;;;;4970603;28;20018;-71
2023/05/23 14:18:48;;;;;;;7.82;3.65;;;;;;;;;;4970665;28;20019;-68
2023/05/23 14:21:13;;;;;;;10.05;4.80;;;;;;;;;;4973750;28;20027;-69
2023/05/23 14:23:38;;;;;;;9.00;3.92;;;;;;;;;;4975071;28;20022;-67
2023/05/23 14:26:04;;;;;;;8.93;4.88;;;;;;;;;;4982132;28;20104;-68
2023/05/23 14:28:29;;;;;;;11.63;3.83;;;;;;;;;;4984105;28;20022;-68
2023/05/23 14:30:55;;;;;;;10.25;4.65;;;;;;;;;;4971728;28;20567;-67
2023/05/23 14:33:20;;;;;;;8.43;3.70;;;;;;;;;;4971416;28;20022;-66
2023/05/23 14:35:45;;;;;;;7.60;3.80;;;;;;;;;;4970579;28;20033;-67
2023/05/23 14:38:11;;;;;;;7.22;3.33;;;;;;;;;;4968119;28;20027;-69
2023/05/23 14:40:36;;;;;;;8.68;4.13;;;;;;;;;;4969933;28;20423;-72